Accueil
METAR-TAF:

METAR-TAF

Aéroports :

Aéroport de Pontoise - Cormeilles-en-Vexin

Pontoise, France

latitude: 49-05-48N, longitude: 002-02-27E, altitude: 99 m

Observation

Le bulletin a été fait il y a 11 minutes, à 08:00 UTC
Vent 7 kt de nord-ouest
Température 6°C
Humidité 93%
Pression 1041 hPa
Visibilité 10 km ou plus
Ciel couvert à une hauteur de 2100 ft

METAR: LFPT 050800Z AUTO 32007KT 9999 OVC021 06/05 Q1041

Heure: 09:11 (08:11 UTC)


TAF: absent

Observations et prévisions météorologiques de plus de 4000 aéroports (messages METAR et TAF).

Les stations disponibles sont représentées par des disques jaunes et rouges sur la carte.

Passer la souris dessus pour voir le nom de la station.

Cliquer dessus pour voir les observations et prévisions météorologiques.

Pour changer de carte: cliquez sur les boutons verts avec une croix noire pour zoomer, sur le bouton vert avec un tiret pour effectuer un zoom arrière, ou sur les flèches vertes pour les cartes adjacentes.


METAR-TAF: